createdAt,value
2023-03-06T00:02:00.553Z,94016.78
2023-03-06T00:04:27.921Z,94013.63
2023-03-06T00:06:54.434Z,94007.22
2023-03-06T00:09:22.282Z,94005.84
2023-03-06T00:11:50.366Z,94004.06
2023-03-06T00:14:17.217Z,94000.88
2023-03-06T00:16:45.074Z,94007.03
2023-03-06T00:19:12.643Z,93995.84
2023-03-06T00:21:39.120Z,94007.28
2023-03-06T00:24:05.663Z,94010.63
2023-03-06T00:26:32.277Z,94004.84
2023-03-06T00:28:58.855Z,94010.84
2023-03-06T00:31:27.622Z,94014.81
2023-03-06T00:33:57.528Z,94013.53
2023-03-06T00:36:23.996Z,94008.75
2023-03-06T00:38:50.405Z,94013.94
2023-03-06T00:41:19.331Z,94009.16
2023-03-06T00:43:45.848Z,94006.28
2023-03-06T00:46:12.915Z,94004.13
2023-03-06T00:48:41.089Z,94017.78
2023-03-06T00:51:07.623Z,94007.66
2023-03-06T00:53:36.979Z,94005.59
2023-03-06T00:56:03.883Z,94007.25
2023-03-06T00:58:35.806Z,93998.38
2023-03-06T01:01:05.903Z,93994.00
2023-03-06T01:03:35.600Z,94000.84
2023-03-06T01:06:02.125Z,93988.28
2023-03-06T01:08:32.835Z,93987.91
2023-03-06T01:11:01.348Z,93993.91
2023-03-06T01:13:30.622Z,93992.53
2023-03-06T01:15:57.142Z,93982.69
2023-03-06T01:18:23.774Z,93975.16
2023-03-06T01:20:52.837Z,93969.16
2023-03-06T01:23:19.330Z,93973.34
2023-03-06T01:25:48.463Z,93967.72
2023-03-06T01:28:16.482Z,93966.09
2023-03-06T01:30:43.105Z,93959.38
2023-03-06T01:33:09.804Z,93970.16
2023-03-06T01:35:37.616Z,93958.00
2023-03-06T01:38:05.728Z,93953.91
2023-03-06T01:40:32.554Z,93948.16
2023-03-06T01:42:59.562Z,93949.50
2023-03-06T01:45:27.389Z,93944.84
2023-03-06T01:47:54.316Z,93932.16
2023-03-06T01:50:21.194Z,93932.41
2023-03-06T01:52:50.284Z,93928.56
2023-03-06T01:55:17.835Z,93931.03
2023-03-06T01:57:46.789Z,93921.88
2023-03-06T02:00:14.630Z,93924.22
2023-03-06T02:02:41.471Z,93911.25
2023-03-06T02:05:08.033Z,93917.50
2023-03-06T02:07:34.936Z,93924.72
2023-03-06T02:10:01.733Z,93926.72
2023-03-06T02:12:28.218Z,93919.66
2023-03-06T02:14:54.839Z,93920.47
2023-03-06T02:17:21.443Z,93923.53
2023-03-06T02:19:49.985Z,93920.94
2023-03-06T02:22:16.776Z,93916.81
2023-03-06T02:24:43.774Z,93915.06
2023-03-06T02:27:13.122Z,93913.78
2023-03-06T02:29:39.768Z,93908.03
2023-03-06T02:32:08.654Z,93910.25
2023-03-06T02:34:36.959Z,93913.41
2023-03-06T02:37:03.706Z,93895.81
2023-03-06T02:39:30.499Z,93894.75
2023-03-06T02:41:57.359Z,93890.09
2023-03-06T02:44:24.275Z,93886.44
2023-03-06T02:46:53.314Z,93887.00
2023-03-06T02:49:26.566Z,93886.88
2023-03-06T02:51:54.645Z,93893.84
2023-03-06T02:54:21.705Z,93891.38
2023-03-06T02:56:49.740Z,93887.28
2023-03-06T02:59:16.634Z,93893.53
2023-03-06T03:01:43.384Z,93895.72
2023-03-06T03:04:09.947Z,93896.63
2023-03-06T03:06:36.527Z,93882.69
2023-03-06T03:09:08.981Z,93882.41
2023-03-06T03:31:30.415Z,93881.78
2023-03-06T03:39:31.652Z,93874.53
2023-03-06T03:42:11.162Z,93868.25
2023-03-06T03:46:19.877Z,93866.97
2023-03-06T03:56:51.024Z,93865.75
2023-03-06T04:11:37.104Z,93862.78
2023-03-06T04:23:37.540Z,93866.41
2023-03-06T04:34:21.798Z,93859.09
2023-03-06T04:40:00.166Z,93851.19
2023-03-06T05:01:51.942Z,93837.19
2023-03-06T05:04:19.700Z,93840.09
2023-03-06T05:06:52.688Z,93849.09
2023-03-06T05:09:26.728Z,93855.22
2023-03-06T05:11:53.196Z,93847.75
2023-03-06T05:14:22.850Z,93859.88
2023-03-06T05:53:20.031Z,93834.69
2023-03-06T08:27:21.944Z,93878.13
2023-03-06T08:32:32.374Z,93875.34
2023-03-06T08:34:58.827Z,93873.56
2023-03-06T08:37:28.138Z,93884.13
2023-03-06T08:39:54.629Z,93884.31
2023-03-06T08:42:21.078Z,93889.13
2023-03-06T08:44:47.729Z,93882.75
2023-03-06T08:47:14.142Z,93885.56
2023-03-06T08:49:42.636Z,93880.34
2023-03-06T08:52:10.097Z,93884.13
2023-03-06T08:54:39.252Z,93882.03
2023-03-06T08:57:05.814Z,93883.84
2023-03-06T08:59:32.294Z,93887.28
2023-03-06T09:04:49.394Z,93883.03
2023-03-06T09:07:15.867Z,93874.22
2023-03-06T09:09:42.261Z,93874.22
2023-03-06T09:12:23.673Z,93880.75
2023-03-06T09:14:56.274Z,93869.31
2023-03-06T09:20:15.250Z,93881.38
2023-03-06T09:30:59.197Z,93875.50
2023-03-06T09:33:26.293Z,93880.91
2023-03-06T09:35:53.008Z,93875.81
2023-03-06T09:38:19.922Z,93880.03
2023-03-06T09:40:46.472Z,93875.94
2023-03-06T09:43:13.069Z,93879.91
2023-03-06T09:45:39.645Z,93869.44
2023-03-06T09:48:08.489Z,93871.78
2023-03-06T09:50:35.031Z,93872.03
2023-03-06T09:53:01.394Z,93870.06
2023-03-06T09:55:27.772Z,93867.19
2023-03-06T09:57:54.231Z,93869.03
2023-03-06T10:00:20.713Z,93859.16
2023-03-06T10:02:48.196Z,93866.13
2023-03-06T10:05:17.525Z,93863.31
2023-03-06T10:07:46.238Z,93867.69
2023-03-06T15:36:54.879Z,93629.94
2023-03-06T15:39:21.429Z,93632.72
2023-03-06T15:41:48.082Z,93636.56
2023-03-06T15:44:15.617Z,93648.53
2023-03-06T15:46:42.343Z,93641.22
2023-03-06T15:49:08.797Z,93631.31
2023-03-06T15:51:35.577Z,93640.88
2023-03-06T15:54:12.404Z,93645.34
2023-03-06T15:56:39.407Z,93648.28
2023-03-06T15:59:05.807Z,93652.94
2023-03-06T16:01:32.356Z,93652.47
2023-03-06T16:06:42.280Z,93664.22
2023-03-06T16:09:16.291Z,93660.22
2023-03-06T16:11:44.119Z,93659.84
2023-03-06T16:14:10.622Z,93659.63
2023-03-06T16:16:38.271Z,93668.53
2023-03-06T16:19:06.051Z,93660.63
2023-03-06T16:21:34.125Z,93665.31
2023-03-06T16:24:00.706Z,93670.59
2023-03-06T16:26:27.616Z,93674.97
2023-03-06T16:29:02.103Z,93677.53
2023-03-06T16:37:03.473Z,93681.34
2023-03-06T16:39:34.178Z,93681.44
2023-03-06T16:42:07.185Z,93686.13
2023-03-06T16:44:38.702Z,93693.34
2023-03-06T16:47:09.426Z,93697.75
2023-03-06T16:49:36.026Z,93697.16
2023-03-06T16:52:02.530Z,93695.50
2023-03-06T16:54:33.775Z,93704.59
2023-03-06T16:57:08.082Z,93701.91
2023-03-06T16:59:35.213Z,93702.16
2023-03-06T17:02:01.825Z,93700.66
2023-03-06T17:04:28.515Z,93701.69
2023-03-06T17:06:59.473Z,93702.13
2023-03-06T17:09:28.126Z,93703.44
2023-03-06T17:11:58.111Z,93712.66
2023-03-06T17:14:33.838Z,93711.81
2023-03-06T17:17:18.589Z,93713.56
2023-03-06T17:19:46.334Z,93729.44
2023-03-06T17:22:16.321Z,93722.94
2023-03-06T17:24:43.232Z,93726.41
2023-03-06T17:27:10.274Z,93727.16
2023-03-06T17:29:37.707Z,93731.53
2023-03-06T17:32:06.890Z,93731.81
2023-03-06T17:34:33.791Z,93737.00
2023-03-06T17:37:00.358Z,93738.88
2023-03-06T17:39:26.773Z,93731.94
2023-03-06T17:41:53.174Z,93741.50
2023-03-06T17:44:23.023Z,93749.47
2023-03-06T17:46:49.866Z,93756.66
2023-03-06T17:49:16.681Z,93765.44
2023-03-06T17:51:47.000Z,93769.47
2023-03-06T17:54:13.544Z,93777.38
2023-03-06T17:56:40.182Z,93770.84
2023-03-06T17:59:06.787Z,93779.72
2023-03-06T18:01:33.392Z,93780.69
2023-03-06T18:03:59.766Z,93799.56
2023-03-06T18:06:26.360Z,93804.34
2023-03-06T18:08:56.692Z,93806.31
2023-03-06T18:11:23.081Z,93797.88
2023-03-06T18:13:49.762Z,93802.13
2023-03-06T18:16:16.158Z,93803.47
2023-03-06T18:18:44.946Z,93806.38
2023-03-06T18:21:15.861Z,93809.09
2023-03-06T18:23:42.317Z,93808.63
2023-03-06T18:26:16.215Z,93806.19
2023-03-06T18:28:46.048Z,93796.03
2023-03-06T18:31:12.792Z,93797.97
2023-03-06T18:33:39.351Z,93800.28
2023-03-06T18:36:06.791Z,93813.41
2023-03-06T18:38:34.935Z,93814.38
2023-03-06T18:41:01.526Z,93819.34
2023-03-06T18:43:27.998Z,93818.53
2023-03-06T18:45:54.456Z,93820.88
2023-03-06T18:48:21.103Z,93821.34
2023-03-06T18:50:47.922Z,93824.28
2023-03-06T18:53:17.352Z,93825.50
2023-03-06T18:55:43.826Z,93836.97
2023-03-06T18:58:10.475Z,93835.97
2023-03-06T19:00:37.927Z,93835.47
2023-03-06T19:03:06.576Z,93838.13
2023-03-06T19:05:35.798Z,93833.19
2023-03-06T19:08:02.464Z,93832.88
2023-03-06T19:10:29.171Z,93832.41
2023-03-06T19:12:56.859Z,93821.78
2023-03-06T19:15:25.781Z,93833.59
2023-03-06T19:17:52.387Z,93831.97
2023-03-06T19:20:19.292Z,93836.09
2023-03-06T19:22:45.916Z,93834.28
2023-03-06T19:25:12.440Z,93841.50
2023-03-06T19:27:38.921Z,93841.00
2023-03-06T19:30:05.417Z,93843.78
2023-03-06T19:32:32.259Z,93846.72
2023-03-06T19:35:01.718Z,93851.31
2023-03-06T19:37:28.186Z,93853.94
2023-03-06T19:39:55.207Z,93850.50
2023-03-06T19:42:21.598Z,93849.03
2023-03-06T19:44:47.993Z,93850.66
2023-03-06T19:47:14.337Z,93856.06
2023-03-06T19:49:40.747Z,93847.75
2023-03-06T19:52:09.334Z,93853.78
2023-03-06T19:54:35.911Z,93858.03
2023-03-06T19:57:02.312Z,93864.41
2023-03-06T19:59:28.784Z,93864.75
2023-03-06T20:01:55.201Z,93859.03
2023-03-06T20:04:21.822Z,93866.88
2023-03-06T20:06:48.768Z,93866.06
2023-03-06T20:09:15.171Z,93869.16
2023-03-06T20:11:41.531Z,93867.38
2023-03-06T20:14:08.198Z,93869.31
2023-03-06T20:16:34.651Z,93875.84
2023-03-06T20:19:01.483Z,93872.59
2023-03-06T20:21:28.121Z,93866.72
2023-03-06T20:23:56.795Z,93875.19
2023-03-06T20:26:23.147Z,93880.09
2023-03-06T20:28:50.517Z,93877.13
2023-03-06T20:31:18.001Z,93881.06
2023-03-06T20:33:44.527Z,93885.63
2023-03-06T20:36:10.948Z,93886.09
2023-03-06T20:38:37.396Z,93875.16
2023-03-06T20:41:03.871Z,93883.97
2023-03-06T20:43:30.623Z,93881.84
2023-03-06T20:45:57.372Z,93887.22
2023-03-06T20:48:24.164Z,93893.75
2023-03-06T20:50:50.801Z,93890.78
2023-03-06T20:53:17.518Z,93887.84
2023-03-06T20:55:44.178Z,93881.13
2023-03-06T20:58:10.563Z,93895.63
2023-03-06T21:00:36.924Z,93893.31
2023-03-06T21:03:03.333Z,93892.81
2023-03-06T21:05:29.832Z,93895.59
2023-03-06T21:07:56.256Z,93899.50
2023-03-06T21:10:23.691Z,93900.13
2023-03-06T21:12:52.156Z,93897.16
2023-03-06T21:15:18.678Z,93892.25
2023-03-06T21:17:49.103Z,93891.72
2023-03-06T21:20:15.860Z,93897.69
2023-03-06T21:22:42.554Z,93889.75
2023-03-06T21:25:09.984Z,93891.31
2023-03-06T21:27:36.375Z,93898.16
2023-03-06T21:30:02.791Z,93885.78
2023-03-06T21:32:29.199Z,93892.47
2023-03-06T21:34:55.600Z,93882.88
2023-03-06T21:37:21.949Z,93876.00
2023-03-06T21:39:48.353Z,93869.66
2023-03-06T21:42:14.721Z,93873.06
2023-03-06T21:44:41.147Z,93871.72
2023-03-06T21:47:07.539Z,93876.13
2023-03-06T21:49:33.939Z,93880.00
2023-03-06T21:52:00.350Z,93871.22
2023-03-06T21:54:26.742Z,93865.03
2023-03-06T21:57:00.819Z,93869.69
2023-03-06T21:59:27.210Z,93866.84
2023-03-06T22:01:53.610Z,93858.53
2023-03-06T22:04:20.017Z,93860.75
2023-03-06T22:06:46.489Z,93859.06
2023-03-06T22:09:12.863Z,93855.81
2023-03-06T22:11:39.208Z,93859.84
2023-03-06T22:14:05.918Z,93852.47
2023-03-06T22:16:32.321Z,93854.19
2023-03-06T22:18:58.864Z,93850.41
2023-03-06T22:21:26.303Z,93846.13
2023-03-06T22:23:52.697Z,93851.00
2023-03-06T22:26:21.341Z,93853.22
2023-03-06T22:28:48.083Z,93856.81
2023-03-06T22:31:14.570Z,93850.16
2023-03-06T22:33:40.971Z,93844.88
2023-03-06T22:36:07.341Z,93851.50
2023-03-06T22:38:37.506Z,93855.97
2023-03-06T22:41:04.228Z,93858.59
2023-03-06T22:43:31.678Z,93851.22
2023-03-06T22:45:58.208Z,93855.31
2023-03-06T22:48:31.942Z,93853.28
2023-03-06T22:50:58.396Z,93852.97
2023-03-06T22:53:24.761Z,93854.22
2023-03-06T22:55:54.404Z,93853.97
2023-03-06T22:58:20.923Z,93851.88
2023-03-06T23:00:48.311Z,93848.00
2023-03-06T23:03:14.914Z,93841.81
2023-03-06T23:05:41.275Z,93848.38
2023-03-06T23:08:08.658Z,93846.44
2023-03-06T23:10:35.225Z,93848.59
2023-03-06T23:13:01.606Z,93849.13
2023-03-06T23:15:28.023Z,93845.91
2023-03-06T23:17:54.414Z,93846.50
2023-03-06T23:20:22.985Z,93853.97
2023-03-06T23:22:50.250Z,93842.22
2023-03-06T23:25:16.644Z,93853.97
2023-03-06T23:27:43.416Z,93847.78
2023-03-06T23:30:09.765Z,93854.47
2023-03-06T23:32:36.143Z,93851.06
2023-03-06T23:35:03.545Z,93852.03
2023-03-06T23:37:29.951Z,93847.34
2023-03-06T23:39:56.529Z,93844.88
2023-03-06T23:42:22.970Z,93844.56
2023-03-06T23:44:51.689Z,93836.50
2023-03-06T23:47:18.079Z,93833.72
2023-03-06T23:49:44.480Z,93823.16
2023-03-06T23:52:10.902Z,93825.63
2023-03-06T23:54:37.258Z,93827.09
2023-03-06T23:57:03.782Z,93837.66
2023-03-06T23:59:30.331Z,93836.66
